This is the latest recevied weather packets stored in our database for station/object DJ3OW-13. If no packets are shown the sender has not sent any weather packets the latest 10 day(s).
| Time | Temp. | Humidity | Pressure | Rain* | Wind** | Luminosity | Snow |
|---|---|---|---|---|---|---|---|
| 1777453835 | 12.78° C | 48% | 1030.4 hPa | 0 mm | - | - | - |
| 1777451426 | 11.67° C | 53% | 1030.2 hPa | 0 mm | - | - | - |
| 1777449620 | 11.11° C | 55% | 1030.3 hPa | 0 mm | - | - | - |
| 1777448436 | 10° C | 56% | 1030.2 hPa | 0 mm | - | - | - |
| 1777447874 | 9.44° C | 57% | 1030.1 hPa | 0 mm | - | - | - |
| 1777446670 | 8.33° C | 62% | 1029.9 hPa | 0 mm | - | - | - |
| 1777445466 | 7.78° C | 65% | 1029.5 hPa | 0 mm | - | - | - |
| 1777441854 | 5° C | 70% | 1028.9 hPa | 0 mm | - | - | - |
| 1777441252 | 4.44° C | 71% | 1028.8 hPa | 0 mm | - | - | - |
| 1777438242 | 3.33° C | 76% | 1028.1 hPa | 0 mm | - | - | - |
| 1777437640 | 3.33° C | 75% | 1028.1 hPa | 0 mm | - | - | - |
| 1777437038 | 3.33° C | 74% | 1028 hPa | 0 mm | - | - | - |
| 1777436436 | 3.89° C | 72% | 1028 hPa | 0 mm | - | - | - |
| 1777432222 | 5° C | 68% | 1028.1 hPa | 0 mm | - | - | - |
| 1777426262 | 6.11° C | 64% | 1028.1 hPa | 0 mm | - | - | - |
| 1777425680 | 6.11° C | 63% | 1028.1 hPa | 0 mm | - | - | - |
| 1777425057 | 6.11° C | 63% | 1028.2 hPa | 0 mm | - | - | - |
| 1777424456 | 6.67° C | 63% | 1028.2 hPa | 0 mm | - | - | - |
| 1777419639 | 7.22° C | 63% | 1028.3 hPa | 0 mm | - | - | - |
| 1777417231 | 6.11° C | 68% | 1028 hPa | 0 mm | - | - | - |
| 1777416629 | 6.11° C | 66% | 1028 hPa | 0 mm | - | - | - |
| 1777415425 | 6.67° C | 65% | 1027.8 hPa | 0 mm | - | - | - |
| 1777398027 | 15° C | 36% | 1026.3 hPa | 0 mm | - | - | - |
| 1777397425 | 15° C | 36% | 1026.4 hPa | 0 mm | - | - | - |
| 1777396221 | 15.56° C | 35% | 1026.3 hPa | 0 mm | - | - | - |
* Rain latest hour (hover to see other rain measurements)
** Current wind speed in m/s (hover to see current wind gust speed)